• Join FlightAware (Why Join?)
  • Login
  • US Flag 
05:42AM EDT


 

Airport Tracker/Info


-or-


 

Live Flight TrackerFlight Track Log ✈ CSJ405 ✈ 03-May-2013 ✈ KALB - KCDW

Flight Track Log - Related Links

Times and Time Zones

All times are in EDT time to prevent confusion due to time zone crossing. See the CSJ405 flight status page for this flight to view local times or setup timezone preferences in your user account.

Time Position Orientation Groundspeed Altitude Reporting Facility
EDT Latitude Longitude Course Direction KTS MPH feet Rate Location/Type
05:43PM 42.7486 -73.8142 260° West 96 110 1,100  Level Boston Center
05:45PM 42.7439 -73.8508 260° West 97 112 2,700 1,320 Climbing Boston Center
05:46PM 42.7164 -73.8700 207° Southwest 106 122 4,000 1,320 Climbing Boston Center
05:47PM 42.6914 -73.8892 209° Southwest 108 124 5,400 1,320 Climbing Boston Center
05:48PM 42.6619 -73.9083 206° Southwest 120 138 6,700 1,200 Climbing Boston Center
05:49PM 42.6325 -73.9272 205° Southwest 127 146 7,800 720 Climbing Boston Center
05:50PM 42.5947 -73.9517 205° Southwest 148 170 8,100 120 Climbing Boston Center
05:50PM 42.5547 -73.9761 204° Southwest 176 203 8,100  Level Boston Center
05:51PM 42.5147 -74.0089 211° Southwest 177 204 8,100  Level Boston Center
05:52PM 42.4706 -74.0389 207° Southwest 173 199 8,100  Level Boston Center
05:54PM 42.4200 -74.0742 207° Southwest 172 198 8,100 -60 Level Boston Center
05:54PM 42.3925 -74.0875 200° South 174 200 8,000  Descending Boston Center
05:55PM 42.3758 -74.0983 206° Southwest 172 198 8,100  Climbing Boston Center
05:55PM 42.3464 -74.1144 202° Southwest 174 200 8,000  Descending Boston Center
05:56PM 42.3358 -74.1281 224° Southwest 172 198 8,100  Climbing Boston Center
05:56PM 42.3147 -74.1389 201° Southwest 184 212 8,000 -120 Descending Boston Center
05:57PM 42.2622 -74.1739 206° Southwest 177 204 8,000  Level Boston Center
05:58PM 42.2242 -74.1981 205° Southwest 177 204 8,000  Level Boston Center
05:59PM 42.1758 -74.2303 206° Southwest 177 204 8,000  Level Boston Center
06:00PM 42.1378 -74.2572 208° Southwest 177 204 8,000  Level Boston Center
06:01PM 42.0914 -74.2950 211° Southwest 182 209 8,000  Level Boston Center
06:02PM 42.0533 -74.3247 210° Southwest 182 209 8,100  Climbing Boston Center
06:03PM 42.0069 -74.3567 207° Southwest 177 204 8,100  Level Boston Center
06:04PM 41.9689 -74.3836 208° Southwest 177 204 8,100  Level Boston Center
06:05PM 41.9225 -74.4211 211° Southwest 177 204 8,100  Level Boston Center
06:06PM 41.8886 -74.4453 208° Southwest 177 204 8,100  Level Boston Center
06:07PM 41.8358 -74.4797 206° Southwest 177 204 8,100  Level Boston Center
06:08PM 41.8000 -74.5092 211° Southwest 177 204 8,100  Level Boston Center
06:09PM 41.7494 -74.5381 203° Southwest 177 204 8,100  Level Boston Center
06:10PM 41.7075 -74.5481 190° South 172 198 8,100 -120 Level Boston Center
06:11PM 41.6553 -74.5544 185° South 172 198 7,900 -300 Descending Boston Center
06:12PM 41.6092 -74.5642 189° South 184 212 7,500 -420 Descending Boston Center
06:13PM 41.5528 -74.5706 185° South 184 212 7,100 -480 Descending Boston Center
06:14PM 41.5047 -74.5800 188° South 184 212 6,600 -420 Descending Boston Center
06:16PM 41.4167 -74.6000 190° South 176 203 6,000 -240 Descending New York TRACON
06:17PM 41.3667 -74.6167 194° South 174 200 6,000  Level New York TRACON
06:18PM 41.3167 -74.6167 180° South 174 200 6,000 -360 Level New York TRACON
06:19PM 41.2667 -74.6000 166° South 186 214 5,300 -720 Descending New York TRACON
06:20PM 41.2333 -74.5667 143° Southeast 183 211 4,600 -660 Descending New York TRACON
06:21PM 41.1833 -74.5333 153° Southeast 178 205 4,000 -300 Descending New York TRACON
06:22PM 41.1500 -74.5000 143° Southeast 159 183 4,100  Climbing New York TRACON
06:23PM 41.1167 -74.4667 143° Southeast 162 186 4,100  Level New York TRACON
06:24PM 41.0667 -74.4333 153° Southeast 161 185 4,100 -240 Level New York TRACON
06:25PM 41.0333 -74.4000 143° Southeast 171 197 3,700 -660 Descending New York TRACON
06:26PM 40.9833 -74.3667 153° Southeast 171 197 2,800 -960 Descending New York TRACON
06:27PM 40.9500 -74.3333 143° Southeast 167 192 1,800 -780 Descending New York TRACON
06:28PM 40.9167 -74.3000 143° Southeast 156 180 1,300 -540 Descending New York TRACON
06:30PM 40.8752 -74.2814 128° Southeast  Level Estimated
06:37PM 40.8752 -74.2814 128° Southeast  Level Estimated
06:38PM 40.8752 -74.2814 128° Southeast  Level Estimated
06:39PM 40.8752 -74.2814 128° Southeast  Level Estimated
06:40PM 40.8752 -74.2814 128° Southeast  Level Estimated